Details From SPZO - TENIENTE ALEJANDRO VELASCO ASTETE INTL
To SPHO - CORONEL FAP ALFREDO MENDIVIL DUARTE
Flight Number -
Tags generated
Created
Modified
Stats Distance 135 nm / 249 km
Max Altitude 22,000 ft / 6,706 m
Waypoints 4
Social Downloads 0
Likes 0
Share VATSIM

Download

Looking for another format? Having issues loading an existing format? Contact us
Advertisement - Login to hide

Notes

Basic altitude profile: - Ascent Rate: 2500ft/min - Ascent Speed: 250kts - Cruise Altitude: 35000ft - Cruise Speed: 420kts - Descent Rate: 1500ft/min - Descent Speed: 250kts Options: - Use NATs: yes - Use PACOTS: yes - Use low airways: yes - Use high airways: yes

Route

SPZO BOLEP V10 AYA SPHO

ID Type Via Altitude Latitude Longitude Leg Dist Tot Dist Heading (true) Name
O SPZO APT - 0 ft / 0 m -13.53572˚ -71.93878˚ - 0 nm - TENIENTE ALEJANDRO VELASCO ASTETE INTL
BOLEP FIX - 16,200 ft / 4,938 m -13.38056˚ -72.85333˚ 54 nm 54 nm 280° / 280° -
AYA NDB V10 (AWY-LO) 22,000 ft / 6,706 m -13.15194˚ -74.20528˚ 80 nm 134 nm 280° / 280° AYACUCHO NDB
O SPHO APT - 0 ft / 0 m -13.15482˚ -74.20442˚ 0 nm 134 nm 164° / 164° CORONEL FAP ALFREDO MENDIVIL DUARTE

Altitude Profile

Advertisement - Login to hide

SPZO

Details ICAO SPZO (CUZ)
Name TENIENTE ALEJANDRO VELASCO ASTETE INTL
Region Peru
Timezone America/Lima (UTC-5.0)
Stats Elevation 10,860 ft / 3,310 m (AMSL)
Location -13.535722° -71.938780°
Runways 1
Magnetic Variation 5.555° W

METAR

SPZO 161100Z VRB01KT 9999 FEW050 SCT200 09/05 Q1031 NOSIG RMK BIRD HAZARD RWY 28 PP000

Decode

TAF

TAF SPZO 152300Z 1600/1624 VRB02KT 9999 FEW050 SCT100 TX22/1619Z TN07/1611Z TEMPO 1610/1613 FEW025 SCT043 BKN100 TEMPO 1618/1622 29010KT FEW040TCU SCT050 BKN080

Decode

Departure Runways

ID Width Length Bearing (true) Bearing (mag) Surface Threshold Offset Overrun Length
10 148 ft / 45 m 11,135 ft / 3,394 m 95.97° 101.53° Asphalt 0 ft / 0 m 215 ft / 66 m
28 148 ft / 45 m 11,135 ft / 3,394 m 275.96° 281.52° Asphalt 0 ft / 0 m 200 ft / 61 m

SPHO

Details ICAO SPHO (AYP)
Name CORONEL FAP ALFREDO MENDIVIL DUARTE
Region Peru
Timezone America/Lima (UTC-5.0)
Stats Elevation 8,917 ft / 2,718 m (AMSL)
Location -13.154820° -74.204416°
Runways 1
Magnetic Variation 3.794° W

METAR

SPHO 161100Z 15003KT CAVOK 13/11 Q1027 RMK PP000

Decode

TAF

Not found

Destination Runways

ID Width Length Bearing (true) Bearing (mag) Surface Threshold Offset Overrun Length
02 148 ft / 45 m 9,239 ft / 2,816 m 22.35° 26.14° Asphalt 0 ft / 0 m 0 ft / 0 m
20 148 ft / 45 m 9,239 ft / 2,816 m 202.35° 206.14° Asphalt 0 ft / 0 m 100 ft / 30 m

Popular Alternatives